Nearby METAR Reports

 

EGNM - Leeds And Bradford, United Kingdom
Distance from station: N 11mi, 18km
Updated: 18/01/2021 15:50
NOT Current
Partly cloudy
Partly cloudy
 Wind from SW
Wind: SW 13 mph , 20 km/h
Temperature: 5°C
Wind Chill: 1°C
Dew Point: 3°C
Humidity: 87%
Barometer: 1013 hPa
Clouds: Partly cloudy
Visibility: 6 miles , 10 km
Cloud details: Partly cloudy 579 m
2021/01/18 15:50 EGNM 181550Z 23011KT 9999 SCT019 05/03 Q1013
EGXU - Linton-On-Ouse, United Kingdom
Distance from station: NNE 28mi, 45km
Updated: 19/01/2021 00:50
Light rain, Overcast
Light rain, Overcast
 Wind from SE
Wind: SE 7 mph , 11 km/h
Temperature: 7°C
Wind Chill: 5°C
Dew Point: 6°C
Humidity: 93%
Barometer: 1002 hPa
Summary: Light rain
Clouds: Overcast
Visibility: 5 miles , 8 km
Cloud details: Overcast 274 m
2021/01/19 00:50 EGXU 190050Z AUTO 14006KT 8000 -RA OVC009/// 07/06 Q1002
 
EGCN - Doncaster Sheffield, United Kingdom
Distance from station: ESE 30mi, 45km
Updated: 19/01/2021 01:20
Few Clouds
Few Clouds
 Wind from S
Wind: S 10 mph , 17 km/h
Temperature: 8°C
Wind Chill: 5°C
Dew Point: 7°C
Humidity: 93%
Barometer: 1004 hPa
Clouds: Few Clouds
Visibility: 6 miles , 10 km
Cloud details: Few Clouds 975 m
2021/01/19 01:20 EGCN 190120Z 19009KT 9999 FEW032 08/07 Q1004
EGXZ - Topcliffe RAF, United Kingdom
Distance from station: NNE 36mi, 57km
Updated: 19/01/2021 00:50
Mist, Mostly cloudy
Mist, Mostly cloudy
 Wind from SE
Wind: SE 8 mph , 13 km/h
Temperature: 6°C
Wind Chill: 3°C
Dew Point: 5°C
Humidity: 93%
Barometer: 1002 hPa
Summary: Mist
Clouds: Mostly cloudy
Visibility: 2 miles , 4 km
Cloud details: Mostly cloudy 244 m
2021/01/19 00:50 EGXZ 190050Z AUTO 13007KT 3900 BR BKN008/// 06/05 Q1002
 
EGCC - Manchester Intl, United Kingdom
Distance from station: SW 36mi, 58km
Updated: 19/01/2021 01:20
Light rain, Thunderstorm
Light rain, Thunderstorm
 Wind from SSW
Wind: SSW 8 mph , 13 km/h
Temperature: 8°C
Wind Chill: 6°C
Dew Point: 8°C
Humidity: 100%
Barometer: 1003 hPa
Summary: Light rain
Clouds: Thunderstorm
Visibility: 5 miles , 8 km
Cloud details: Partly cloudy 152 m
Mostly cloudy 335 m
Mostly cloudy 488 m
2021/01/19 01:20 EGCC 190120Z AUTO 20007KT 160V220 8000 -RA SCT005/// BKN011/// BKN016/// //////TCU 08/08 Q1003 TEMPO 4000 RA BKN005
EGXE - Leeming RAF, United Kingdom
Distance from station: N 40mi, 65km
Updated: 19/01/2021 00:50
Mist, Overcast
Mist, Overcast
 Wind from ESE
Wind: ESE 6 mph , 9 km/h
Temperature: 6°C
Wind Chill: 4°C
Dew Point: 5°C
Humidity: 93%
Barometer: 1002 hPa
Summary: Mist
Clouds: Overcast
Visibility: 2 miles , 4 km
Cloud details: Overcast 244 m
2021/01/19 00:50 EGXE 190050Z AUTO 12005KT 3900 BR OVC008/// 06/05 Q1002